메인 페이지
METAR-TAF:

METAR-TAF

공항 :

보팔, 인도

위도: 23-17-15N, 경도: 77-20-15E, 고도: 524m

현재 날씨관측

예보는 40분 전, 18:00시(UTC)에 발표되었습니다.
5kt
온도 23°C
습도 47%
기압 1018 hPa
시정: 6000m

METAR: VABP 201800Z 09005KT 6000 NSC 23/11 Q1018 NOSIG

시각: 00:10 (18:40 UTC)

예보

예보는 1 시간 40분 전, 17:00시(UTC)에 발표되었습니다.
예보 대상 시간: 20일 18시부터 21일 03시까지 (UTC)
남동5kt
시정: 4000m
연무
전환 중
21일 00시부터 21일 02시까지 (UTC)
8kt
시정: 3000m
연무

TAF: VABP 201700Z 2018/2103 14005KT 4000 HZ NSC BECMG 2100/2102 19008KT 3000 HZ

4,000개 이상의 공항 관측 자료 및 예보 (METAR 및 TAF 보고).

지도상에서 검색 가능한 기상관측소가 노란 점과 빨간 점으로 표시되어 있습니다.

기상관측소 명을 보려면 표시 위로 마우스를 이동하세요.

날씨 관측과 예보를 보려면 클릭하세요.

지도 변경 : 확대하려면 엑스 표시가 있는 녹색 버튼, 축소하려면 빼기 표시가 있는 녹색 버튼, 다음 페이지의 지도를 보려면 녹색 화살표를 클릭하세요.


METAR-TAF: